sensor_id;sensor_type;location;lat;lon;timestamp;P1;durP1;ratioP1;P2;durP2;ratioP2
71639;SDS011;60912;48.968;10.124;2023-06-22T00:02:04;13.00;;;8.70;;
71639;SDS011;60912;48.968;10.124;2023-06-22T00:04:29;13.73;;;9.17;;
71639;SDS011;60912;48.968;10.124;2023-06-22T00:06:55;17.90;;;9.40;;
71639;SDS011;60912;48.968;10.124;2023-06-22T00:09:20;14.07;;;9.43;;
71639;SDS011;60912;48.968;10.124;2023-06-22T00:11:45;14.70;;;9.10;;
71639;SDS011;60912;48.968;10.124;2023-06-22T00:14:11;14.87;;;9.50;;
71639;SDS011;60912;48.968;10.124;2023-06-22T00:16:36;12.63;;;8.93;;
71639;SDS011;60912;48.968;10.124;2023-06-22T00:19:01;14.07;;;9.73;;
71639;SDS011;60912;48.968;10.124;2023-06-22T00:21:28;13.40;;;10.18;;
71639;SDS011;60912;48.968;10.124;2023-06-22T00:23:54;12.98;;;9.23;;
71639;SDS011;60912;48.968;10.124;2023-06-22T00:26:19;16.93;;;9.37;;
71639;SDS011;60912;48.968;10.124;2023-06-22T00:28:45;15.02;;;9.75;;
71639;SDS011;60912;48.968;10.124;2023-06-22T00:31:11;13.87;;;9.00;;
71639;SDS011;60912;48.968;10.124;2023-06-22T00:33:36;12.67;;;8.57;;
71639;SDS011;60912;48.968;10.124;2023-06-22T00:36:02;10.93;;;8.23;;
71639;SDS011;60912;48.968;10.124;2023-06-22T00:38:28;11.70;;;8.68;;
71639;SDS011;60912;48.968;10.124;2023-06-22T00:40:53;16.23;;;9.90;;
71639;SDS011;60912;48.968;10.124;2023-06-22T00:43:19;14.43;;;9.73;;
71639;SDS011;60912;48.968;10.124;2023-06-22T00:45:44;13.03;;;9.50;;
71639;SDS011;60912;48.968;10.124;2023-06-22T00:48:09;12.70;;;9.23;;
71639;SDS011;60912;48.968;10.124;2023-06-22T00:50:36;11.80;;;9.40;;
71639;SDS011;60912;48.968;10.124;2023-06-22T00:53:06;12.32;;;9.23;;
71639;SDS011;60912;48.968;10.124;2023-06-22T00:55:36;17.23;;;10.20;;
71639;SDS011;60912;48.968;10.124;2023-06-22T00:58:08;14.02;;;9.50;;
71639;SDS011;60912;48.968;10.124;2023-06-22T01:00:35;13.80;;;9.95;;
71639;SDS011;60912;48.968;10.124;2023-06-22T01:03:02;14.77;;;9.98;;
71639;SDS011;60912;48.968;10.124;2023-06-22T01:05:28;13.55;;;9.98;;
71639;SDS011;60912;48.968;10.124;2023-06-22T01:13:18;14.52;;;9.35;;
71639;SDS011;60912;48.968;10.124;2023-06-22T01:16:03;14.75;;;9.13;;
71639;SDS011;60912;48.968;10.124;2023-06-22T01:18:32;14.15;;;9.90;;
71639;SDS011;60912;48.968;10.124;2023-06-22T01:21:02;15.63;;;9.77;;
71639;SDS011;60912;48.968;10.124;2023-06-22T01:27:00;19.50;;;10.30;;
71639;SDS011;60912;48.968;10.124;2023-06-22T01:29:38;14.55;;;9.63;;
71639;SDS011;60912;48.968;10.124;2023-06-22T01:32:05;14.05;;;9.68;;
71639;SDS011;60912;48.968;10.124;2023-06-22T01:34:32;17.23;;;10.40;;
71639;SDS011;60912;48.968;10.124;2023-06-22T01:36:58;15.23;;;10.30;;
71639;SDS011;60912;48.968;10.124;2023-06-22T01:39:25;15.25;;;10.32;;
71639;SDS011;60912;48.968;10.124;2023-06-22T01:41:51;13.20;;;9.40;;
71639;SDS011;60912;48.968;10.124;2023-06-22T01:44:18;13.05;;;9.55;;
71639;SDS011;60912;48.968;10.124;2023-06-22T01:46:43;15.87;;;9.77;;
71639;SDS011;60912;48.968;10.124;2023-06-22T01:49:09;15.27;;;10.25;;
71639;SDS011;60912;48.968;10.124;2023-06-22T01:51:34;14.83;;;9.73;;
71639;SDS011;60912;48.968;10.124;2023-06-22T01:54:00;14.48;;;9.35;;
71639;SDS011;60912;48.968;10.124;2023-06-22T01:56:26;15.57;;;8.73;;
71639;SDS011;60912;48.968;10.124;2023-06-22T01:58:57;12.45;;;9.55;;
71639;SDS011;60912;48.968;10.124;2023-06-22T02:01:31;14.97;;;9.13;;
71639;SDS011;60912;48.968;10.124;2023-06-22T02:04:04;12.82;;;9.35;;
71639;SDS011;60912;48.968;10.124;2023-06-22T02:06:34;13.98;;;9.50;;
71639;SDS011;60912;48.968;10.124;2023-06-22T02:09:08;12.85;;;8.70;;
71639;SDS011;60912;48.968;10.124;2023-06-22T02:11:37;11.27;;;8.52;;
71639;SDS011;60912;48.968;10.124;2023-06-22T02:14:04;13.40;;;8.87;;
71639;SDS011;60912;48.968;10.124;2023-06-22T02:16:31;11.13;;;7.57;;
71639;SDS011;60912;48.968;10.124;2023-06-22T02:18:57;11.32;;;8.18;;
71639;SDS011;60912;48.968;10.124;2023-06-22T02:21:28;12.77;;;8.25;;
71639;SDS011;60912;48.968;10.124;2023-06-22T02:23:54;12.05;;;8.27;;
71639;SDS011;60912;48.968;10.124;2023-06-22T02:26:19;14.67;;;9.40;;
71639;SDS011;60912;48.968;10.124;2023-06-22T02:28:44;12.70;;;9.13;;
71639;SDS011;60912;48.968;10.124;2023-06-22T02:31:11;13.52;;;8.05;;
71639;SDS011;60912;48.968;10.124;2023-06-22T02:33:36;12.13;;;8.20;;
71639;SDS011;60912;48.968;10.124;2023-06-22T02:36:01;14.03;;;8.93;;
71639;SDS011;60912;48.968;10.124;2023-06-22T02:38:30;11.80;;;8.30;;
71639;SDS011;60912;48.968;10.124;2023-06-22T02:40:58;10.82;;;8.10;;
71639;SDS011;60912;48.968;10.124;2023-06-22T02:43:23;12.30;;;7.40;;
71639;SDS011;60912;48.968;10.124;2023-06-22T02:45:49;10.98;;;7.63;;
71639;SDS011;60912;48.968;10.124;2023-06-22T02:48:15;10.70;;;7.73;;
71639;SDS011;60912;48.968;10.124;2023-06-22T02:50:40;13.50;;;7.73;;
71639;SDS011;60912;48.968;10.124;2023-06-22T02:53:06;11.27;;;7.80;;
71639;SDS011;60912;48.968;10.124;2023-06-22T02:55:31;11.70;;;7.90;;
71639;SDS011;60912;48.968;10.124;2023-06-22T02:57:56;13.30;;;8.00;;
71639;SDS011;60912;48.968;10.124;2023-06-22T03:00:22;12.47;;;8.80;;
71639;SDS011;60912;48.968;10.124;2023-06-22T03:02:48;11.48;;;7.68;;
71639;SDS011;60912;48.968;10.124;2023-06-22T03:05:14;11.63;;;8.20;;
71639;SDS011;60912;48.968;10.124;2023-06-22T03:07:45;11.90;;;8.45;;
71639;SDS011;60912;48.968;10.124;2023-06-22T03:10:11;13.70;;;8.47;;
71639;SDS011;60912;48.968;10.124;2023-06-22T03:12:38;15.25;;;9.05;;
71639;SDS011;60912;48.968;10.124;2023-06-22T03:15:05;11.43;;;8.00;;
71639;SDS011;60912;48.968;10.124;2023-06-22T03:17:31;12.80;;;8.00;;
71639;SDS011;60912;48.968;10.124;2023-06-22T03:19:56;11.07;;;7.97;;
71639;SDS011;60912;48.968;10.124;2023-06-22T03:22:21;12.37;;;7.93;;
71639;SDS011;60912;48.968;10.124;2023-06-22T03:24:47;12.00;;;7.67;;
71639;SDS011;60912;48.968;10.124;2023-06-22T03:27:12;11.43;;;7.90;;
71639;SDS011;60912;48.968;10.124;2023-06-22T03:29:38;11.33;;;7.53;;
71639;SDS011;60912;48.968;10.124;2023-06-22T03:32:03;10.90;;;7.33;;
71639;SDS011;60912;48.968;10.124;2023-06-22T03:34:31;10.27;;;8.18;;
71639;SDS011;60912;48.968;10.124;2023-06-22T03:36:58;10.37;;;7.33;;
71639;SDS011;60912;48.968;10.124;2023-06-22T03:39:24;12.18;;;7.45;;
71639;SDS011;60912;48.968;10.124;2023-06-22T03:41:49;12.90;;;8.00;;
71639;SDS011;60912;48.968;10.124;2023-06-22T03:44:14;12.77;;;8.10;;
71639;SDS011;60912;48.968;10.124;2023-06-22T03:46:40;13.93;;;8.73;;
71639;SDS011;60912;48.968;10.124;2023-06-22T03:49:05;14.13;;;8.27;;
71639;SDS011;60912;48.968;10.124;2023-06-22T03:51:30;13.90;;;7.87;;
71639;SDS011;60912;48.968;10.124;2023-06-22T03:53:57;12.23;;;7.50;;
71639;SDS011;60912;48.968;10.124;2023-06-22T03:56:22;12.30;;;7.70;;
71639;SDS011;60912;48.968;10.124;2023-06-22T03:58:48;12.23;;;7.15;;
71639;SDS011;60912;48.968;10.124;2023-06-22T04:01:13;9.43;;;6.70;;
71639;SDS011;60912;48.968;10.124;2023-06-22T04:03:38;13.47;;;7.57;;
71639;SDS011;60912;48.968;10.124;2023-06-22T04:06:04;11.57;;;8.30;;
71639;SDS011;60912;48.968;10.124;2023-06-22T04:08:30;11.18;;;7.80;;
71639;SDS011;60912;48.968;10.124;2023-06-22T04:10:55;9.37;;;7.30;;
71639;SDS011;60912;48.968;10.124;2023-06-22T04:13:20;11.77;;;7.33;;
71639;SDS011;60912;48.968;10.124;2023-06-22T04:15:46;11.05;;;7.18;;
71639;SDS011;60912;48.968;10.124;2023-06-22T04:18:11;11.03;;;7.63;;
71639;SDS011;60912;48.968;10.124;2023-06-22T04:20:38;10.00;;;6.95;;
71639;SDS011;60912;48.968;10.124;2023-06-22T04:23:04;11.50;;;7.50;;
71639;SDS011;60912;48.968;10.124;2023-06-22T04:25:29;12.48;;;7.55;;
71639;SDS011;60912;48.968;10.124;2023-06-22T04:27:54;11.63;;;7.47;;
71639;SDS011;60912;48.968;10.124;2023-06-22T04:30:20;11.13;;;7.37;;
71639;SDS011;60912;48.968;10.124;2023-06-22T04:32:45;9.93;;;6.10;;
71639;SDS011;60912;48.968;10.124;2023-06-22T04:35:21;10.52;;;7.03;;
71639;SDS011;60912;48.968;10.124;2023-06-22T04:37:47;9.65;;;7.40;;
71639;SDS011;60912;48.968;10.124;2023-06-22T04:40:14;10.38;;;6.70;;
71639;SDS011;60912;48.968;10.124;2023-06-22T04:42:40;10.13;;;6.80;;
71639;SDS011;60912;48.968;10.124;2023-06-22T04:45:05;10.70;;;7.50;;
71639;SDS011;60912;48.968;10.124;2023-06-22T04:47:31;11.02;;;7.38;;
71639;SDS011;60912;48.968;10.124;2023-06-22T04:49:57;9.57;;;6.38;;
71639;SDS011;60912;48.968;10.124;2023-06-22T04:52:23;9.87;;;6.30;;
71639;SDS011;60912;48.968;10.124;2023-06-22T04:54:49;13.43;;;7.15;;
71639;SDS011;60912;48.968;10.124;2023-06-22T04:57:20;9.82;;;7.50;;
71639;SDS011;60912;48.968;10.124;2023-06-22T04:59:58;12.17;;;7.07;;
71639;SDS011;60912;48.968;10.124;2023-06-22T05:02:36;9.88;;;7.30;;
71639;SDS011;60912;48.968;10.124;2023-06-22T05:05:02;10.88;;;7.88;;
71639;SDS011;60912;48.968;10.124;2023-06-22T05:07:32;13.38;;;8.25;;
71639;SDS011;60912;48.968;10.124;2023-06-22T05:09:58;11.80;;;8.48;;
71639;SDS011;60912;48.968;10.124;2023-06-22T05:12:23;11.43;;;7.57;;
71639;SDS011;60912;48.968;10.124;2023-06-22T05:14:48;11.90;;;7.73;;
71639;SDS011;60912;48.968;10.124;2023-06-22T05:17:14;10.23;;;8.20;;
71639;SDS011;60912;48.968;10.124;2023-06-22T05:19:40;10.83;;;7.07;;
71639;SDS011;60912;48.968;10.124;2023-06-22T05:22:10;11.60;;;8.80;;
71639;SDS011;60912;48.968;10.124;2023-06-22T05:24:37;13.65;;;9.15;;
71639;SDS011;60912;48.968;10.124;2023-06-22T05:27:02;12.80;;;8.30;;
71639;SDS011;60912;48.968;10.124;2023-06-22T05:29:28;12.50;;;8.88;;
71639;SDS011;60912;48.968;10.124;2023-06-22T05:31:53;12.27;;;7.80;;
71639;SDS011;60912;48.968;10.124;2023-06-22T05:34:18;16.17;;;7.90;;
71639;SDS011;60912;48.968;10.124;2023-06-22T05:36:44;12.23;;;7.97;;
71639;SDS011;60912;48.968;10.124;2023-06-22T05:39:13;10.00;;;7.17;;
71639;SDS011;60912;48.968;10.124;2023-06-22T05:41:39;12.25;;;7.80;;
71639;SDS011;60912;48.968;10.124;2023-06-22T05:44:04;12.40;;;7.03;;
71639;SDS011;60912;48.968;10.124;2023-06-22T05:46:30;12.60;;;6.77;;
71639;SDS011;60912;48.968;10.124;2023-06-22T05:48:55;10.07;;;6.60;;
71639;SDS011;60912;48.968;10.124;2023-06-22T05:51:20;11.40;;;6.60;;
71639;SDS011;60912;48.968;10.124;2023-06-22T05:53:46;9.73;;;6.30;;
71639;SDS011;60912;48.968;10.124;2023-06-22T05:56:14;11.75;;;6.82;;
71639;SDS011;60912;48.968;10.124;2023-06-22T05:58:40;9.52;;;6.63;;
71639;SDS011;60912;48.968;10.124;2023-06-22T06:01:05;13.07;;;7.00;;
71639;SDS011;60912;48.968;10.124;2023-06-22T06:03:34;9.50;;;6.50;;
71639;SDS011;60912;48.968;10.124;2023-06-22T06:06:06;12.13;;;6.68;;
71639;SDS011;60912;48.968;10.124;2023-06-22T06:08:36;10.52;;;6.80;;
71639;SDS011;60912;48.968;10.124;2023-06-22T06:11:01;11.63;;;7.20;;
71639;SDS011;60912;48.968;10.124;2023-06-22T06:13:27;12.37;;;7.13;;
71639;SDS011;60912;48.968;10.124;2023-06-22T06:15:52;9.50;;;6.30;;
71639;SDS011;60912;48.968;10.124;2023-06-22T06:18:20;9.85;;;6.38;;
71639;SDS011;60912;48.968;10.124;2023-06-22T06:20:45;13.60;;;6.45;;
71639;SDS011;60912;48.968;10.124;2023-06-22T06:23:11;8.53;;;6.77;;
71639;SDS011;60912;48.968;10.124;2023-06-22T06:25:36;15.20;;;6.40;;
71639;SDS011;60912;48.968;10.124;2023-06-22T06:28:01;9.53;;;6.33;;
71639;SDS011;60912;48.968;10.124;2023-06-22T06:30:28;12.98;;;6.05;;
71639;SDS011;60912;48.968;10.124;2023-06-22T06:32:54;9.70;;;5.88;;
71639;SDS011;60912;48.968;10.124;2023-06-22T06:35:19;10.17;;;5.40;;
71639;SDS011;60912;48.968;10.124;2023-06-22T06:37:47;8.67;;;5.43;;
71639;SDS011;60912;48.968;10.124;2023-06-22T06:40:14;8.55;;;5.75;;
71639;SDS011;60912;48.968;10.124;2023-06-22T06:42:48;7.60;;;5.05;;
71639;SDS011;60912;48.968;10.124;2023-06-22T06:45:17;9.18;;;5.10;;
71639;SDS011;60912;48.968;10.124;2023-06-22T06:47:44;10.65;;;5.55;;
71639;SDS011;60912;48.968;10.124;2023-06-22T06:50:10;10.03;;;5.47;;
71639;SDS011;60912;48.968;10.124;2023-06-22T06:52:36;8.55;;;5.03;;
71639;SDS011;60912;48.968;10.124;2023-06-22T06:55:02;10.70;;;4.90;;
71639;SDS011;60912;48.968;10.124;2023-06-22T06:57:29;11.05;;;5.50;;
71639;SDS011;60912;48.968;10.124;2023-06-22T06:59:55;11.70;;;6.05;;
71639;SDS011;60912;48.968;10.124;2023-06-22T07:02:21;13.05;;;5.63;;
71639;SDS011;60912;48.968;10.124;2023-06-22T07:04:47;13.07;;;6.00;;
71639;SDS011;60912;48.968;10.124;2023-06-22T07:07:13;11.32;;;5.60;;
71639;SDS011;60912;48.968;10.124;2023-06-22T07:09:39;9.23;;;5.07;;
71639;SDS011;60912;48.968;10.124;2023-06-22T07:12:04;9.90;;;5.15;;
71639;SDS011;60912;48.968;10.124;2023-06-22T07:14:30;11.13;;;5.40;;
71639;SDS011;60912;48.968;10.124;2023-06-22T07:16:56;12.07;;;5.15;;
71639;SDS011;60912;48.968;10.124;2023-06-22T07:19:26;8.90;;;5.30;;
71639;SDS011;60912;48.968;10.124;2023-06-22T07:21:52;8.60;;;5.45;;
71639;SDS011;60912;48.968;10.124;2023-06-22T07:24:21;7.85;;;4.75;;
71639;SDS011;60912;48.968;10.124;2023-06-22T07:26:47;8.70;;;4.60;;
71639;SDS011;60912;48.968;10.124;2023-06-22T07:29:14;8.88;;;5.50;;
71639;SDS011;60912;48.968;10.124;2023-06-22T07:31:40;9.77;;;5.00;;
71639;SDS011;60912;48.968;10.124;2023-06-22T07:34:06;8.80;;;5.10;;
71639;SDS011;60912;48.968;10.124;2023-06-22T07:36:31;9.83;;;4.67;;
71639;SDS011;60912;48.968;10.124;2023-06-22T07:38:57;9.32;;;4.55;;
71639;SDS011;60912;48.968;10.124;2023-06-22T07:41:22;15.63;;;5.07;;
71639;SDS011;60912;48.968;10.124;2023-06-22T07:43:48;8.77;;;4.50;;
71639;SDS011;60912;48.968;10.124;2023-06-22T07:46:13;9.47;;;4.90;;
71639;SDS011;60912;48.968;10.124;2023-06-22T07:48:38;9.55;;;4.70;;
71639;SDS011;60912;48.968;10.124;2023-06-22T07:51:04;9.17;;;4.23;;
71639;SDS011;60912;48.968;10.124;2023-06-22T07:53:31;8.75;;;4.80;;
71639;SDS011;60912;48.968;10.124;2023-06-22T07:55:56;10.43;;;4.83;;
71639;SDS011;60912;48.968;10.124;2023-06-22T07:58:22;8.73;;;3.97;;
71639;SDS011;60912;48.968;10.124;2023-06-22T08:00:47;9.77;;;4.50;;
71639;SDS011;60912;48.968;10.124;2023-06-22T08:03:14;8.32;;;4.43;;
71639;SDS011;60912;48.968;10.124;2023-06-22T08:05:40;8.30;;;4.25;;
71639;SDS011;60912;48.968;10.124;2023-06-22T08:08:07;9.07;;;4.30;;
71639;SDS011;60912;48.968;10.124;2023-06-22T08:10:39;9.57;;;4.50;;
71639;SDS011;60912;48.968;10.124;2023-06-22T08:13:04;7.05;;;4.30;;
71639;SDS011;60912;48.968;10.124;2023-06-22T08:15:30;9.48;;;4.45;;
71639;SDS011;60912;48.968;10.124;2023-06-22T08:17:55;10.30;;;4.73;;
71639;SDS011;60912;48.968;10.124;2023-06-22T08:20:20;8.23;;;3.90;;
71639;SDS011;60912;48.968;10.124;2023-06-22T08:22:46;8.10;;;4.10;;
71639;SDS011;60912;48.968;10.124;2023-06-22T08:25:11;9.63;;;4.03;;
71639;SDS011;60912;48.968;10.124;2023-06-22T08:27:38;9.25;;;4.03;;
71639;SDS011;60912;48.968;10.124;2023-06-22T08:30:04;9.98;;;4.15;;
71639;SDS011;60912;48.968;10.124;2023-06-22T08:32:30;7.10;;;4.00;;
71639;SDS011;60912;48.968;10.124;2023-06-22T08:34:57;5.95;;;3.60;;
71639;SDS011;60912;48.968;10.124;2023-06-22T08:37:23;6.93;;;3.50;;
71639;SDS011;60912;48.968;10.124;2023-06-22T08:39:55;7.95;;;3.97;;
71639;SDS011;60912;48.968;10.124;2023-06-22T08:42:21;8.30;;;3.55;;
71639;SDS011;60912;48.968;10.124;2023-06-22T08:44:48;10.10;;;3.75;;
71639;SDS011;60912;48.968;10.124;2023-06-22T08:47:13;9.80;;;3.90;;
71639;SDS011;60912;48.968;10.124;2023-06-22T08:49:39;9.30;;;4.60;;
71639;SDS011;60912;48.968;10.124;2023-06-22T08:52:04;10.97;;;3.87;;
71639;SDS011;60912;48.968;10.124;2023-06-22T08:54:30;11.52;;;4.22;;
71639;SDS011;60912;48.968;10.124;2023-06-22T08:56:58;9.27;;;3.92;;
71639;SDS011;60912;48.968;10.124;2023-06-22T08:59:23;10.20;;;3.57;;
71639;SDS011;60912;48.968;10.124;2023-06-22T09:01:48;9.17;;;4.10;;
71639;SDS011;60912;48.968;10.124;2023-06-22T09:04:14;11.13;;;3.90;;
71639;SDS011;60912;48.968;10.124;2023-06-22T09:06:40;9.18;;;3.65;;
71639;SDS011;60912;48.968;10.124;2023-06-22T09:09:10;9.68;;;3.92;;
71639;SDS011;60912;48.968;10.124;2023-06-22T09:11:35;9.17;;;3.63;;
71639;SDS011;60912;48.968;10.124;2023-06-22T09:14:01;9.13;;;4.10;;
71639;SDS011;60912;48.968;10.124;2023-06-22T09:16:26;10.73;;;4.00;;
71639;SDS011;60912;48.968;10.124;2023-06-22T09:18:52;9.73;;;3.80;;
71639;SDS011;60912;48.968;10.124;2023-06-22T09:21:17;12.40;;;3.83;;
71639;SDS011;60912;48.968;10.124;2023-06-22T09:23:43;10.67;;;4.10;;
71639;SDS011;60912;48.968;10.124;2023-06-22T09:26:08;9.57;;;3.93;;
71639;SDS011;60912;48.968;10.124;2023-06-22T09:28:34;12.13;;;4.00;;
71639;SDS011;60912;48.968;10.124;2023-06-22T09:30:59;10.77;;;4.20;;
71639;SDS011;60912;48.968;10.124;2023-06-22T09:33:25;14.47;;;4.17;;
71639;SDS011;60912;48.968;10.124;2023-06-22T09:35:51;10.02;;;3.67;;
71639;SDS011;60912;48.968;10.124;2023-06-22T09:38:17;10.10;;;3.70;;
71639;SDS011;60912;48.968;10.124;2023-06-22T09:40:42;17.70;;;3.97;;
71639;SDS011;60912;48.968;10.124;2023-06-22T09:43:07;12.90;;;3.97;;
71639;SDS011;60912;48.968;10.124;2023-06-22T09:45:33;10.57;;;4.07;;
71639;SDS011;60912;48.968;10.124;2023-06-22T09:47:59;11.00;;;3.80;;
71639;SDS011;60912;48.968;10.124;2023-06-22T09:50:24;9.57;;;4.10;;
71639;SDS011;60912;48.968;10.124;2023-06-22T09:52:49;14.00;;;3.93;;
71639;SDS011;60912;48.968;10.124;2023-06-22T09:55:19;12.32;;;3.65;;
71639;SDS011;60912;48.968;10.124;2023-06-22T09:57:48;10.43;;;3.35;;
71639;SDS011;60912;48.968;10.124;2023-06-22T10:00:13;12.40;;;3.90;;
71639;SDS011;60912;48.968;10.124;2023-06-22T10:02:43;14.18;;;3.67;;
71639;SDS011;60912;48.968;10.124;2023-06-22T10:05:09;12.33;;;3.90;;
71639;SDS011;60912;48.968;10.124;2023-06-22T10:07:34;11.80;;;3.90;;
71639;SDS011;60912;48.968;10.124;2023-06-22T10:10:05;12.73;;;4.00;;
71639;SDS011;60912;48.968;10.124;2023-06-22T10:12:31;12.73;;;4.10;;
71639;SDS011;60912;48.968;10.124;2023-06-22T10:14:56;13.53;;;3.90;;
71639;SDS011;60912;48.968;10.124;2023-06-22T10:17:22;7.83;;;3.53;;
71639;SDS011;60912;48.968;10.124;2023-06-22T10:19:47;12.53;;;3.87;;
71639;SDS011;60912;48.968;10.124;2023-06-22T10:22:12;11.70;;;4.30;;
71639;SDS011;60912;48.968;10.124;2023-06-22T10:24:38;10.37;;;4.13;;
71639;SDS011;60912;48.968;10.124;2023-06-22T10:27:09;11.90;;;3.95;;
71639;SDS011;60912;48.968;10.124;2023-06-22T10:29:35;8.90;;;3.60;;
71639;SDS011;60912;48.968;10.124;2023-06-22T10:32:00;12.07;;;4.30;;
71639;SDS011;60912;48.968;10.124;2023-06-22T10:34:25;9.40;;;3.87;;
71639;SDS011;60912;48.968;10.124;2023-06-22T10:36:51;11.53;;;4.23;;
71639;SDS011;60912;48.968;10.124;2023-06-22T10:39:16;13.13;;;4.30;;
71639;SDS011;60912;48.968;10.124;2023-06-22T10:41:41;13.65;;;4.55;;
71639;SDS011;60912;48.968;10.124;2023-06-22T10:44:07;14.20;;;4.67;;
71639;SDS011;60912;48.968;10.124;2023-06-22T10:46:35;12.63;;;4.33;;
71639;SDS011;60912;48.968;10.124;2023-06-22T10:49:00;12.88;;;4.50;;
71639;SDS011;60912;48.968;10.124;2023-06-22T10:51:25;14.17;;;4.20;;
71639;SDS011;60912;48.968;10.124;2023-06-22T10:53:53;11.80;;;4.50;;
71639;SDS011;60912;48.968;10.124;2023-06-22T10:56:18;13.83;;;5.10;;
71639;SDS011;60912;48.968;10.124;2023-06-22T10:58:44;11.95;;;4.38;;
71639;SDS011;60912;48.968;10.124;2023-06-22T11:01:10;11.82;;;4.75;;
71639;SDS011;60912;48.968;10.124;2023-06-22T11:03:36;13.67;;;4.27;;
71639;SDS011;60912;48.968;10.124;2023-06-22T11:06:01;12.03;;;4.63;;
71639;SDS011;60912;48.968;10.124;2023-06-22T11:08:27;10.85;;;4.10;;
71639;SDS011;60912;48.968;10.124;2023-06-22T11:10:52;12.43;;;4.73;;
71639;SDS011;60912;48.968;10.124;2023-06-22T11:13:18;11.07;;;4.57;;
71639;SDS011;60912;48.968;10.124;2023-06-22T11:15:43;11.97;;;4.70;;
71639;SDS011;60912;48.968;10.124;2023-06-22T11:18:08;14.30;;;4.80;;
71639;SDS011;60912;48.968;10.124;2023-06-22T11:20:34;16.47;;;4.43;;
71639;SDS011;60912;48.968;10.124;2023-06-22T11:23:03;10.43;;;4.75;;
71639;SDS011;60912;48.968;10.124;2023-06-22T11:25:30;13.88;;;4.50;;
71639;SDS011;60912;48.968;10.124;2023-06-22T11:27:55;10.83;;;4.13;;
71639;SDS011;60912;48.968;10.124;2023-06-22T11:30:21;16.03;;;4.30;;
71639;SDS011;60912;48.968;10.124;2023-06-22T11:32:46;16.43;;;4.70;;
71639;SDS011;60912;48.968;10.124;2023-06-22T11:35:11;14.03;;;4.53;;
71639;SDS011;60912;48.968;10.124;2023-06-22T11:37:37;12.57;;;4.63;;
71639;SDS011;60912;48.968;10.124;2023-06-22T11:40:02;12.23;;;4.67;;
71639;SDS011;60912;48.968;10.124;2023-06-22T11:42:30;12.00;;;4.65;;
71639;SDS011;60912;48.968;10.124;2023-06-22T11:44:55;14.37;;;4.47;;
71639;SDS011;60912;48.968;10.124;2023-06-22T11:47:21;11.27;;;4.63;;
71639;SDS011;60912;48.968;10.124;2023-06-22T11:49:46;15.13;;;4.60;;
71639;SDS011;60912;48.968;10.124;2023-06-22T11:52:12;11.38;;;4.38;;
71639;SDS011;60912;48.968;10.124;2023-06-22T11:54:37;15.00;;;4.20;;
71639;SDS011;60912;48.968;10.124;2023-06-22T11:57:03;16.25;;;4.93;;
71639;SDS011;60912;48.968;10.124;2023-06-22T11:59:29;14.33;;;4.80;;
71639;SDS011;60912;48.968;10.124;2023-06-22T12:01:54;12.23;;;4.50;;
71639;SDS011;60912;48.968;10.124;2023-06-22T12:04:20;12.68;;;4.82;;
71639;SDS011;60912;48.968;10.124;2023-06-22T12:06:45;12.40;;;4.60;;
71639;SDS011;60912;48.968;10.124;2023-06-22T12:09:11;12.23;;;4.40;;
71639;SDS011;60912;48.968;10.124;2023-06-22T12:11:38;13.23;;;4.60;;
71639;SDS011;60912;48.968;10.124;2023-06-22T12:14:04;13.57;;;4.95;;
71639;SDS011;60912;48.968;10.124;2023-06-22T12:16:29;12.80;;;4.70;;
71639;SDS011;60912;48.968;10.124;2023-06-22T12:18:54;12.67;;;4.30;;
71639;SDS011;60912;48.968;10.124;2023-06-22T12:21:20;12.83;;;4.43;;
71639;SDS011;60912;48.968;10.124;2023-06-22T12:23:48;12.68;;;5.13;;
71639;SDS011;60912;48.968;10.124;2023-06-22T12:26:14;12.77;;;4.80;;
71639;SDS011;60912;48.968;10.124;2023-06-22T12:28:39;17.48;;;5.68;;
71639;SDS011;60912;48.968;10.124;2023-06-22T12:31:05;13.83;;;6.07;;
71639;SDS011;60912;48.968;10.124;2023-06-22T12:33:30;15.20;;;5.40;;
71639;SDS011;60912;48.968;10.124;2023-06-22T12:35:56;15.38;;;5.32;;
71639;SDS011;60912;48.968;10.124;2023-06-22T12:38:21;19.90;;;5.30;;
71639;SDS011;60912;48.968;10.124;2023-06-22T12:40:47;15.57;;;5.80;;
71639;SDS011;60912;48.968;10.124;2023-06-22T12:43:14;15.25;;;5.45;;
71639;SDS011;60912;48.968;10.124;2023-06-22T12:45:39;14.60;;;4.30;;
71639;SDS011;60912;48.968;10.124;2023-06-22T12:48:05;13.80;;;5.10;;
71639;SDS011;60912;48.968;10.124;2023-06-22T12:50:31;13.32;;;5.00;;
71639;SDS011;60912;48.968;10.124;2023-06-22T12:52:56;13.20;;;4.73;;
71639;SDS011;60912;48.968;10.124;2023-06-22T12:55:21;12.60;;;4.87;;
71639;SDS011;60912;48.968;10.124;2023-06-22T12:57:47;11.90;;;5.40;;
71639;SDS011;60912;48.968;10.124;2023-06-22T13:00:12;15.10;;;4.97;;
71639;SDS011;60912;48.968;10.124;2023-06-22T13:02:38;10.95;;;4.53;;
71639;SDS011;60912;48.968;10.124;2023-06-22T13:05:03;13.83;;;5.13;;
71639;SDS011;60912;48.968;10.124;2023-06-22T13:07:32;13.43;;;5.15;;
71639;SDS011;60912;48.968;10.124;2023-06-22T13:09:58;18.83;;;5.07;;
71639;SDS011;60912;48.968;10.124;2023-06-22T13:12:23;16.80;;;5.15;;
71639;SDS011;60912;48.968;10.124;2023-06-22T13:14:48;10.97;;;4.33;;
71639;SDS011;60912;48.968;10.124;2023-06-22T13:17:14;13.87;;;5.00;;
71639;SDS011;60912;48.968;10.124;2023-06-22T13:19:40;19.38;;;6.65;;
71639;SDS011;60912;48.968;10.124;2023-06-22T13:22:09;15.37;;;4.80;;
71639;SDS011;60912;48.968;10.124;2023-06-22T13:24:57;12.82;;;4.85;;
71639;SDS011;60912;48.968;10.124;2023-06-22T13:27:23;17.92;;;5.32;;
71639;SDS011;60912;48.968;10.124;2023-06-22T13:29:49;17.03;;;5.17;;
71639;SDS011;60912;48.968;10.124;2023-06-22T13:32:14;15.43;;;4.97;;
71639;SDS011;60912;48.968;10.124;2023-06-22T13:34:39;13.70;;;4.70;;
71639;SDS011;60912;48.968;10.124;2023-06-22T13:37:05;12.17;;;4.27;;
71639;SDS011;60912;48.968;10.124;2023-06-22T13:39:30;15.68;;;4.68;;
71639;SDS011;60912;48.968;10.124;2023-06-22T13:41:57;15.57;;;5.13;;
71639;SDS011;60912;48.968;10.124;2023-06-22T13:44:22;14.45;;;4.82;;
71639;SDS011;60912;48.968;10.124;2023-06-22T13:46:48;12.60;;;4.60;;
71639;SDS011;60912;48.968;10.124;2023-06-22T13:49:13;11.80;;;4.87;;
71639;SDS011;60912;48.968;10.124;2023-06-22T13:51:39;13.67;;;4.83;;
71639;SDS011;60912;48.968;10.124;2023-06-22T13:54:04;14.83;;;4.73;;
71639;SDS011;60912;48.968;10.124;2023-06-22T13:56:29;12.20;;;4.63;;
71639;SDS011;60912;48.968;10.124;2023-06-22T13:58:55;16.20;;;5.20;;
71639;SDS011;60912;48.968;10.124;2023-06-22T14:01:20;16.50;;;4.97;;
71639;SDS011;60912;48.968;10.124;2023-06-22T14:03:46;13.63;;;4.97;;
71639;SDS011;60912;48.968;10.124;2023-06-22T14:06:12;15.10;;;4.97;;
71639;SDS011;60912;48.968;10.124;2023-06-22T14:08:38;13.73;;;5.03;;
71639;SDS011;60912;48.968;10.124;2023-06-22T14:11:03;15.07;;;5.17;;
71639;SDS011;60912;48.968;10.124;2023-06-22T14:13:29;16.17;;;4.63;;
71639;SDS011;60912;48.968;10.124;2023-06-22T14:15:54;17.47;;;4.80;;
71639;SDS011;60912;48.968;10.124;2023-06-22T14:18:19;11.60;;;4.87;;
71639;SDS011;60912;48.968;10.124;2023-06-22T14:20:47;12.68;;;4.90;;
71639;SDS011;60912;48.968;10.124;2023-06-22T14:23:13;17.88;;;4.90;;
71639;SDS011;60912;48.968;10.124;2023-06-22T14:25:39;11.47;;;4.50;;
71639;SDS011;60912;48.968;10.124;2023-06-22T14:28:05;16.05;;;4.65;;